Time;durP1;ratioP1;P1;durP2;ratioP2;P2;SDS_P1;SDS_P2;PMS_P1;PMS_P2;Temp;Humidity;BMP_temperature;BMP_pressure;BME280_temperature;BME280_humidity;BME280_pressure;Samples;Min_cycle;Max_cycle;Signal;HPM_P1;HPM_P2
2023/06/07 00:01:49;;;;;;;;;13.33;9.33;;;;;21.95;51.08;101127.03;6194028;22;45331;-65
2023/06/07 00:04:15;;;;;;;;;13.33;8.33;;;;;21.99;50.96;101139.69;6194736;22;45046;-66
2023/06/07 00:06:40;;;;;;;;;13.67;10.67;;;;;21.92;51.05;101126.19;6194329;22;46556;-66
2023/06/07 00:09:09;;;;;;;;;13.33;10.67;;;;;21.69;51.10;101086.63;6193687;23;45169;-65
2023/06/07 00:11:36;;;;;;;;;14.67;12.67;;;;;21.67;51.19;101100.25;6193518;22;45134;-67
2023/06/07 00:14:02;;;;;;;;;13.00;10.67;;;;;21.87;51.49;101162.50;6194970;22;44846;-65
2023/06/07 00:16:27;;;;;;;;;14.00;12.67;;;;;21.78;51.72;101148.13;6193071;22;45012;-68
2023/06/07 00:18:52;;;;;;;;;13.67;10.67;;;;;21.79;51.52;101156.28;6192734;22;44947;-61
2023/06/07 00:21:19;;;;;;;;;18.00;13.00;;;;;21.81;51.66;101156.25;6193256;22;45177;-61
2023/06/07 00:23:48;;;;;;;;;14.67;11.67;;;;;21.76;51.43;101156.31;6193580;22;45054;-68
2023/06/07 00:26:14;;;;;;;;;13.67;12.33;;;;;21.78;51.38;101157.22;6193391;23;45354;-67
2023/06/07 00:28:39;;;;;;;;;11.33;11.33;;;;;21.71;51.54;101150.03;6191728;23;45073;-68
2023/06/07 00:31:05;;;;;;;;;9.67;7.33;;;;;21.76;51.40;101161.75;6191204;22;45003;-69
2023/06/07 00:33:30;;;;;;;;;12.00;11.67;;;;;21.63;51.41;101142.00;6191296;23;45071;-64
2023/06/07 00:35:56;;;;;;;;;14.00;11.33;;;;;21.60;51.55;101135.72;6189784;23;47219;-63
2023/06/07 00:38:23;;;;;;;;;13.33;12.33;;;;;21.62;51.80;101140.19;6190926;22;44933;-64
2023/06/07 00:40:48;;;;;;;;;12.33;11.33;;;;;21.66;51.49;101157.38;6191315;22;44975;-61
2023/06/07 00:43:14;;;;;;;;;12.67;11.67;;;;;21.63;51.61;101155.59;6192031;22;45111;-67
2023/06/07 00:45:39;;;;;;;;;15.00;11.33;;;;;21.56;51.57;101155.69;6191657;23;45038;-65
2023/06/07 00:48:04;;;;;;;;;13.67;13.67;;;;;21.56;51.47;101158.41;6190774;22;47819;-64
2023/06/07 00:50:30;;;;;;;;;13.00;10.33;;;;;21.49;51.68;101144.00;6191701;22;45167;-63
2023/06/07 00:52:56;;;;;;;;;15.67;12.67;;;;;21.43;51.93;101158.53;6191903;23;45000;-63
2023/06/07 00:55:21;;;;;;;;;15.00;11.33;;;;;21.40;52.00;101160.38;6190795;22;45996;-63
2023/06/07 00:57:47;;;;;;;;;11.33;10.00;;;;;21.30;52.11;101145.97;6191566;22;45107;-64
2023/06/07 01:00:13;;;;;;;;;12.00;11.00;;;;;21.31;52.09;101159.56;6190918;23;44899;-65
2023/06/07 01:02:39;;;;;;;;;17.33;13.67;;;;;21.23;51.99;101147.88;6190572;23;45227;-65
2023/06/07 01:05:06;;;;;;;;;11.00;9.67;;;;;21.25;51.95;101154.22;6191464;22;45126;-63
2023/06/07 01:07:32;;;;;;;;;12.67;12.00;;;;;21.21;52.23;101157.88;6215919;22;45316;-68
2023/06/07 01:09:59;;;;;;;;;16.67;12.33;;;;;21.16;52.23;101138.88;6190914;23;45124;-66
2023/06/07 01:12:25;;;;;;;;;14.33;10.33;;;;;21.20;51.99;101150.66;6190710;23;44993;-67
2023/06/07 01:14:51;;;;;;;;;15.00;10.67;;;;;21.16;52.35;101144.31;6191110;22;45117;-68
2023/06/07 01:17:18;;;;;;;;;15.33;13.00;;;;;21.10;52.06;101133.56;6190117;22;45034;-66
2023/06/07 01:19:52;;;;;;;;;21.75;14.25;;;;;21.10;52.37;101147.13;6191282;22;45306;-66
2023/06/07 01:22:21;;;;;;;;;17.00;14.67;;;;;21.05;52.09;101131.78;6191217;22;45063;-65
2023/06/07 01:24:47;;;;;;;;;16.33;11.67;;;;;21.08;52.08;101132.63;6190366;22;46141;-64
2023/06/07 01:27:15;;;;;;;;;14.33;11.33;;;;;21.14;51.96;101148.88;6191139;22;44972;-68
2023/06/07 01:29:41;;;;;;;;;14.00;11.00;;;;;21.06;52.08;101144.47;6190601;23;45197;-66
2023/06/07 01:32:09;;;;;;;;;13.00;10.25;;;;;21.01;52.31;101149.03;6190086;23;44944;-67
2023/06/07 01:34:35;;;;;;;;;16.33;13.67;;;;;20.93;52.24;101133.69;6191050;22;46116;-65
2023/06/07 01:37:01;;;;;;;;;14.67;13.67;;;;;20.98;52.31;101134.56;6190312;22;44877;-68
2023/06/07 01:39:30;;;;;;;;;23.00;14.00;;;;;20.98;52.09;101144.53;6190484;22;45460;-66
2023/06/07 01:41:58;;;;;;;;;19.75;15.25;;;;;20.92;52.47;101140.06;6193711;22;45361;-65
2023/06/07 01:44:23;;;;;;;;;16.33;10.67;;;;;20.83;52.54;101133.84;6192650;22;45568;-62
2023/06/07 01:46:49;;;;;;;;;14.25;11.25;;;;;20.79;52.58;101139.28;6193121;22;45102;-65
2023/06/07 01:49:18;;;;;;;;;21.50;13.25;;;;;20.77;52.61;101134.78;6191492;22;44966;-63
2023/06/07 01:51:43;;;;;;;;;22.50;13.75;;;;;20.72;53.07;101134.84;6192275;22;44982;-66
2023/06/07 01:54:09;;;;;;;;;13.25;11.00;;;;;20.62;52.55;101111.34;6189081;23;46155;-64
2023/06/07 01:56:53;;;;;;;;;16.50;14.25;;;;;20.70;52.89;101130.31;6191352;22;45104;-64
2023/06/07 01:59:41;;;;;;;;;16.00;12.25;;;;;20.70;52.69;101133.94;6191630;22;44932;-65
2023/06/07 02:02:32;;;;;;;;;12.33;11.67;;;;;20.63;52.64;101134.91;6190877;23;44991;-64
2023/06/07 02:05:07;;;;;;;;;15.25;13.00;;;;;20.52;52.75;101113.25;6189909;23;47503;-65
2023/06/07 02:07:41;;;;;;;;;17.00;13.50;;;;;20.54;52.77;101121.38;6189968;23;44889;-66
2023/06/07 02:10:08;;;;;;;;;12.33;11.33;;;;;20.53;52.86;101114.16;6191198;22;44956;-64
2023/06/07 02:12:34;;;;;;;;;12.67;9.00;;;;;20.44;52.80;101096.13;6191013;22;45181;-64
2023/06/07 02:15:00;;;;;;;;;15.67;13.67;;;;;20.56;52.86;101117.75;6189499;23;47664;-65
2023/06/07 02:17:25;;;;;;;;;22.67;12.00;;;;;20.37;52.99;101091.69;6190676;22;45075;-62
2023/06/07 02:19:51;;;;;;;;;19.33;12.67;;;;;20.39;53.12;101107.03;6190916;22;45044;-63
2023/06/07 02:22:16;;;;;;;;;16.00;13.67;;;;;20.43;52.99;101116.94;6191233;22;45074;-62
2023/06/07 02:24:44;;;;;;;;;13.67;10.33;;;;;20.39;53.12;101115.19;6189830;23;46297;-64
2023/06/07 02:27:10;;;;;;;;;17.75;15.00;;;;;20.39;52.99;101115.19;6191708;22;44909;-65
2023/06/07 02:29:35;;;;;;;;;13.00;12.67;;;;;20.29;53.06;101097.16;6190965;22;45007;-64
2023/06/07 02:32:01;;;;;;;;;13.75;12.25;;;;;20.25;53.38;101100.81;6190806;23;45113;-62
2023/06/07 02:34:29;;;;;;;;;16.25;15.00;;;;;20.35;53.08;101116.09;6189543;23;45316;-60
2023/06/07 02:36:54;;;;;;;;;16.00;12.00;;;;;20.28;53.15;101111.66;6191282;22;44958;-63
2023/06/07 02:39:20;;;;;;;;;16.50;13.25;;;;;20.26;53.42;101108.06;6191538;23;45069;-61
2023/06/07 02:41:45;;;;;;;;;16.25;13.00;;;;;20.23;53.27;101116.22;6191882;23;45120;-63
2023/06/07 02:44:10;;;;;;;;;15.25;14.50;;;;;20.20;53.16;101110.81;6190954;23;45655;-63
2023/06/07 02:46:36;;;;;;;;;18.67;13.00;;;;;20.12;53.38;101109.97;6191785;22;45127;-62
2023/06/07 02:49:01;;;;;;;;;19.25;12.50;;;;;20.09;53.58;101113.59;6190456;23;45707;-63
2023/06/07 02:51:26;;;;;;;;;18.75;12.75;;;;;20.06;53.40;101109.09;6190063;22;45359;-62
2023/06/07 02:53:53;;;;;;;;;20.75;16.25;;;;;20.01;53.51;101099.19;6191308;22;45468;-61
2023/06/07 02:56:18;;;;;;;;;14.50;12.50;;;;;20.03;53.53;101111.84;6189347;23;44688;-62
2023/06/07 02:58:43;;;;;;;;;19.25;17.00;;;;;19.98;53.76;101115.47;6189038;23;45412;-61
2023/06/07 03:01:09;;;;;;;;;13.50;12.00;;;;;19.92;54.07;101124.56;6190862;22;45092;-61
2023/06/07 03:03:35;;;;;;;;;23.25;12.50;;;;;19.89;53.92;101116.44;6189449;22;45757;-62
2023/06/07 03:06:04;;;;;;;;;13.25;13.00;;;;;19.83;53.98;101100.19;6185483;22;45193;-63
2023/06/07 03:08:31;;;;;;;;;16.50;15.25;;;;;19.81;54.22;101104.75;6181233;23;45538;-61
2023/06/07 03:10:56;;;;;;;;;20.50;12.75;;;;;19.90;54.29;101115.53;6178678;22;45479;-62
2023/06/07 03:13:23;;;;;;;;;13.50;10.75;;;;;19.90;54.08;101115.53;6178291;22;45692;-62
2023/06/07 03:15:48;;;;;;;;;11.25;11.25;;;;;19.91;53.82;101117.31;6178291;22;45390;-64
2023/06/07 03:18:15;;;;;;;;;14.25;13.75;;;;;19.92;53.95;101101.97;6180584;22;45410;-62
2023/06/07 03:20:41;;;;;;;;;13.50;11.25;;;;;19.91;53.98;101113.72;6183570;23;45277;-63
2023/06/07 03:23:06;;;;;;;;;15.50;14.00;;;;;19.84;54.09;101108.31;6181656;22;46346;-65
2023/06/07 03:25:32;;;;;;;;;17.75;14.00;;;;;19.77;54.17;101109.28;6180257;22;45533;-69
2023/06/07 03:27:57;;;;;;;;;18.00;14.25;;;;;19.72;54.01;101102.97;6177552;22;45334;-65
2023/06/07 03:30:23;;;;;;;;;14.50;13.00;;;;;19.77;54.06;101113.81;6180235;22;45361;-65
2023/06/07 03:32:48;;;;;;;;;12.50;12.00;;;;;19.77;54.16;101116.53;6178258;22;45397;-65
2023/06/07 03:35:14;;;;;;;;;17.00;15.00;;;;;19.72;54.28;101104.78;6176231;23;45247;-63
2023/06/07 03:37:39;;;;;;;;;23.50;13.75;;;;;19.72;54.21;101112.91;6178893;23;45324;-62
2023/06/07 03:40:05;;;;;;;;;18.25;14.25;;;;;19.69;54.18;101105.69;6178284;23;45268;-64
2023/06/07 03:42:30;;;;;;;;;21.75;15.00;;;;;19.66;54.45;101105.69;6178590;22;45540;-64
2023/06/07 03:44:56;;;;;;;;;18.50;17.00;;;;;19.45;54.62;101085.94;6177752;23;57534;-64
2023/06/07 03:47:21;;;;;;;;;16.00;13.25;;;;;19.61;54.50;101116.56;6178182;23;45338;-66
2023/06/07 03:49:46;;;;;;;;;35.25;25.00;;;;;19.61;54.60;101110.25;6178174;22;45383;-63
2023/06/07 03:52:12;;;;;;;;;24.75;21.75;;;;;19.50;54.47;101103.06;6178479;22;45833;-62
2023/06/07 03:54:37;;;;;;;;;25.50;20.25;;;;;19.54;54.79;101114.78;6178029;22;45220;-64
2023/06/07 03:57:03;;;;;;;;;19.50;16.25;;;;;19.49;54.99;101113.91;6178830;22;45300;-63
2023/06/07 03:59:29;;;;;;;;;21.25;16.75;;;;;19.46;54.85;101113.94;6179053;23;45188;-62
2023/06/07 04:01:57;;;;;;;;;14.25;14.25;;;;;19.45;55.05;101113.03;6178427;23;45462;-65
2023/06/07 04:04:27;;;;;;;;;24.00;20.50;;;;;19.36;55.26;101110.34;6179908;22;45346;-65
2023/06/07 04:06:54;;;;;;;;;18.75;17.75;;;;;19.25;55.39;101104.97;6180295;23;45390;-63
2023/06/07 04:09:19;;;;;;;;;17.75;15.00;;;;;19.26;55.58;101101.38;6180683;23;45220;-63
2023/06/07 04:11:45;;;;;;;;;21.25;17.25;;;;;19.35;55.42;101116.66;6180447;22;45358;-67
2023/06/07 04:14:11;;;;;;;;;22.75;16.25;;;;;19.35;55.42;101124.78;6176706;23;45609;-64
2023/06/07 04:16:36;;;;;;;;;23.00;16.25;;;;;19.32;55.40;101117.59;6179738;22;45334;-61
2023/06/07 04:19:04;;;;;;;;;22.50;20.50;;;;;19.29;55.43;101124.84;6179968;22;45489;-63
2023/06/07 04:21:30;;;;;;;;;24.50;17.75;;;;;19.06;56.20;101098.72;6179610;23;46116;-62
2023/06/07 04:23:56;;;;;;;;;20.25;17.25;;;;;19.20;55.64;101127.56;6178140;23;59814;-65
2023/06/07 04:26:22;;;;;;;;;21.25;17.50;;;;;19.21;55.79;101129.38;6179871;23;45207;-64
2023/06/07 04:28:49;;;;;;;;;18.25;15.00;;;;;19.22;55.61;101123.97;6180241;23;45366;-64
2023/06/07 04:31:15;;;;;;;;;18.50;18.25;;;;;19.18;55.47;101127.56;6182067;23;46975;-62
2023/06/07 04:33:45;;;;;;;;;26.50;18.00;;;;;19.11;55.94;101118.56;6179039;22;45549;-71
2023/06/07 04:36:10;;;;;;;;;29.00;22.50;;;;;19.21;55.68;101138.41;6177871;23;45462;-66
2023/06/07 04:38:36;;;;;;;;;18.50;17.25;;;;;19.22;55.64;101128.47;6179736;23;45452;-62
2023/06/07 04:41:06;;;;;;;;;24.50;19.50;;;;;19.24;55.88;101135.69;6180942;22;45731;-69
2023/06/07 04:43:35;;;;;;;;;23.25;20.50;;;;;19.27;55.80;101138.41;6178571;22;45438;-61
2023/06/07 04:46:01;;;;;;;;;21.75;18.75;;;;;19.23;55.88;101141.13;6179526;23;45453;-63
2023/06/07 04:48:26;;;;;;;;;30.00;22.75;;;;;19.18;56.01;101148.34;6179464;22;45467;-64
2023/06/07 04:50:54;;;;;;;;;26.50;20.75;;;;;19.21;55.99;101143.81;6179254;23;45727;-64
2023/06/07 04:53:20;;;;;;;;;29.25;20.50;;;;;19.18;55.78;101137.50;6180069;22;45317;-61
2023/06/07 04:55:47;;;;;;;;;30.50;19.50;;;;;19.19;55.93;101144.72;6180262;22;45366;-65
2023/06/07 04:58:16;;;;;;;;;22.00;19.00;;;;;19.25;55.62;101153.72;6180280;22;45408;-64
2023/06/07 05:00:42;;;;;;;;;27.25;21.75;;;;;19.26;55.61;101146.53;6178568;22;45700;-63
2023/06/07 05:03:08;;;;;;;;;19.25;17.00;;;;;19.25;55.71;101148.31;6178379;23;45331;-62
2023/06/07 05:05:37;;;;;;;;;28.50;23.00;;;;;19.26;55.58;101142.00;6180143;23;45226;-63
2023/06/07 05:08:03;;;;;;;;;21.25;17.75;;;;;19.23;55.97;101135.69;6180622;22;45297;-63
2023/06/07 05:10:29;;;;;;;;;29.75;19.75;;;;;19.13;55.70;101118.56;6180027;22;45518;-72
2023/06/07 05:12:55;;;;;;;;;23.75;20.75;;;;;19.25;55.86;101159.16;6176389;23;45866;-65
2023/06/07 05:15:23;;;;;;;;;23.50;21.00;;;;;19.27;55.63;101154.66;6179055;23;45406;-64
2023/06/07 05:17:49;;;;;;;;;21.75;20.00;;;;;19.23;55.73;101147.41;6180748;22;45411;-62
2023/06/07 05:20:15;;;;;;;;;25.50;22.25;;;;;19.06;55.68;101125.81;6178833;22;45743;-62
2023/06/07 05:22:42;;;;;;;;;22.75;19.25;;;;;19.21;55.85;101141.13;6179442;22;45396;-62
2023/06/07 05:25:09;;;;;;;;;23.50;20.00;;;;;19.22;55.96;101142.00;6179487;23;45567;-65
2023/06/07 05:27:36;;;;;;;;;32.00;25.50;;;;;19.15;55.68;101130.28;6180880;23;45388;-63
2023/06/07 05:30:04;;;;;;;;;27.75;22.50;;;;;19.23;55.68;101138.41;6178985;22;46488;-64
2023/06/07 05:32:30;;;;;;;;;25.75;21.00;;;;;19.19;55.59;101126.69;6177774;22;45425;-63
2023/06/07 05:34:57;;;;;;;;;39.00;28.00;;;;;19.28;56.30;101150.13;6179211;22;45302;-65
2023/06/07 05:37:23;;;;;;;;;27.75;24.50;;;;;19.22;55.87;101128.47;6180240;23;45448;-66
2023/06/07 05:39:48;;;;;;;;;27.50;24.00;;;;;19.31;55.77;101133.84;6180851;22;46032;-66
2023/06/07 05:42:14;;;;;;;;;26.00;21.50;;;;;19.36;55.32;101144.69;6179261;23;50726;-65
2023/06/07 05:44:40;;;;;;;;;26.25;24.75;;;;;19.33;55.69;101140.16;6179099;22;45306;-63
2023/06/07 05:47:06;;;;;;;;;28.75;24.00;;;;;19.31;55.68;101142.00;6180242;22;45433;-63
2023/06/07 05:49:31;;;;;;;;;31.00;27.00;;;;;19.28;55.58;101140.19;6176434;23;47474;-65
2023/06/07 05:51:57;;;;;;;;;28.50;24.00;;;;;19.30;56.02;101145.59;6178158;22;45392;-64
2023/06/07 05:54:23;;;;;;;;;29.75;26.50;;;;;19.33;55.96;101145.59;6179135;22;45505;-63
2023/06/07 05:56:49;;;;;;;;;33.50;26.25;;;;;19.39;55.89;101141.97;6178649;22;45486;-67
2023/06/07 05:59:14;;;;;;;;;25.25;22.75;;;;;19.44;55.58;101145.56;6179741;22;46152;-65
2023/06/07 06:01:40;;;;;;;;;27.25;20.25;;;;;19.27;55.90;101115.78;6179280;22;45432;-64
2023/06/07 06:04:05;;;;;;;;;26.50;25.75;;;;;19.47;55.87;101142.84;6178666;22;45223;-64
2023/06/07 06:06:31;;;;;;;;;20.50;18.50;;;;;19.55;55.48;101135.59;6178701;22;45240;-62
2023/06/07 06:08:56;;;;;;;;;29.00;23.00;;;;;19.64;55.07;101145.47;6180625;23;45605;-66
2023/06/07 06:11:22;;;;;;;;;33.00;22.50;;;;;19.64;55.09;101126.50;6178278;22;45394;-63
2023/06/07 06:13:48;;;;;;;;;29.50;22.25;;;;;19.79;54.59;101150.84;6180170;23;45229;-64
2023/06/07 06:16:14;;;;;;;;;25.00;24.50;;;;;19.82;54.50;101152.66;6180097;22;45354;-62
2023/06/07 06:18:41;;;;;;;;;23.25;22.25;;;;;19.83;54.81;101152.66;6178965;22;45459;-62
2023/06/07 06:21:07;;;;;;;;;33.50;27.00;;;;;19.84;54.42;101151.72;6179493;22;45457;-63
2023/06/07 06:23:32;;;;;;;;;31.00;25.75;;;;;19.89;54.42;101159.81;6178545;22;45708;-63
2023/06/07 06:25:58;;;;;;;;;30.00;19.25;;;;;19.97;54.32;101160.69;6178672;23;45425;-64
2023/06/07 06:28:23;;;;;;;;;25.75;23.00;;;;;19.91;54.47;101152.56;6177008;23;46820;-64
2023/06/07 06:30:50;;;;;;;;;27.00;22.25;;;;;20.03;53.95;101165.19;6181494;23;47428;-60
2023/06/07 06:33:16;;;;;;;;;25.00;21.25;;;;;20.00;53.98;101155.25;6187550;23;45447;-64
2023/06/07 06:35:41;;;;;;;;;22.25;19.50;;;;;19.94;54.37;101174.25;6180013;23;45491;-63
2023/06/07 06:38:06;;;;;;;;;26.00;21.25;;;;;19.95;54.33;101169.75;6178710;22;45497;-64
2023/06/07 06:40:32;;;;;;;;;34.00;32.00;;;;;20.05;54.24;101168.78;6179096;23;45265;-65
2023/06/07 06:42:59;;;;;;;;;25.00;21.75;;;;;20.05;53.87;101147.09;6179865;22;45454;-64
2023/06/07 06:45:25;;;;;;;;;26.50;26.50;;;;;20.13;53.87;101160.59;6178953;23;45565;-64
2023/06/07 06:47:51;;;;;;;;;25.50;23.50;;;;;20.16;53.74;101155.13;6179768;22;46182;-66
2023/06/07 06:50:17;;;;;;;;;27.50;23.50;;;;;20.29;53.83;101155.97;6179264;22;45318;-68
2023/06/07 06:52:42;;;;;;;;;24.75;22.25;;;;;20.37;53.62;101151.38;6178699;22;45377;-65
2023/06/07 06:55:08;;;;;;;;;32.00;21.75;;;;;20.50;53.14;101163.94;6179478;22;45547;-63
2023/06/07 06:57:34;;;;;;;;;28.50;24.75;;;;;20.56;52.88;101166.63;6178763;22;45276;-63
2023/06/07 07:00:00;;;;;;;;;25.50;23.75;;;;;20.55;52.30;101155.75;6178426;22;45459;-67
2023/06/07 07:02:26;;;;;;;;;26.00;23.25;;;;;20.55;52.29;101153.03;6176688;23;45331;-65
2023/06/07 07:04:52;;;;;;;;;24.50;22.50;;;;;20.67;52.39;101161.09;6178606;22;45377;-65
2023/06/07 07:07:18;;;;;;;;;28.00;26.00;;;;;20.68;51.95;101152.06;6178836;22;45441;-67
2023/06/07 07:09:44;;;;;;;;;21.75;19.50;;;;;20.57;52.15;101140.34;6183354;22;45418;-72
2023/06/07 07:12:10;;;;;;;;;31.75;28.00;;;;;20.58;52.22;101137.63;6180519;23;45676;-62
2023/06/07 07:14:36;;;;;;;;;40.75;31.25;;;;;20.65;51.74;101152.09;6188014;22;45230;-65
2023/06/07 07:17:01;;;;;;;;;27.75;24.00;;;;;20.71;52.19;101164.72;6179353;22;46508;-63
2023/06/07 07:19:27;;;;;;;;;22.75;18.50;;;;;20.62;52.03;101154.78;6176242;22;45543;-63
2023/06/07 07:21:52;;;;;;;;;48.50;38.25;;;;;20.77;51.95;101161.94;6184542;22;45457;-67
2023/06/07 07:24:18;;;;;;;;;27.00;24.50;;;;;20.74;51.88;101149.28;6181120;22;45412;-65
2023/06/07 07:26:43;;;;;;;;;24.75;19.75;;;;;20.90;51.70;101169.03;6183737;22;46367;-64
2023/06/07 07:29:09;;;;;;;;;30.00;27.25;;;;;20.92;51.52;101164.53;6186253;22;45225;-65
2023/06/07 07:31:34;;;;;;;;;23.75;22.25;;;;;20.96;51.43;101159.94;6179939;22;45299;-67
2023/06/07 07:34:01;;;;;;;;;27.50;24.25;;;;;21.03;51.39;101167.09;6178364;23;45566;-63
2023/06/07 07:36:28;;;;;;;;;22.25;20.25;;;;;21.10;51.21;101168.88;6178718;22;46074;-65
2023/06/07 07:38:54;;;;;;;;;23.00;22.50;;;;;21.16;51.12;101174.22;6178901;22;45441;-64
2023/06/07 07:41:19;;;;;;;;;23.75;22.00;;;;;21.17;50.65;101170.59;6177478;23;45452;-63
2023/06/07 07:43:45;;;;;;;;;24.50;18.75;;;;;21.26;50.85;101168.69;6178611;23;45800;-63
2023/06/07 07:46:10;;;;;;;;;26.25;22.75;;;;;21.24;50.75;101166.00;6179183;22;45335;-65
2023/06/07 07:48:36;;;;;;;;;26.50;22.50;;;;;21.33;50.83;101175.84;6177377;23;45249;-62
2023/06/07 07:51:02;;;;;;;;;18.25;18.25;;;;;21.31;50.59;101161.38;6201226;22;45271;-68
2023/06/07 07:53:28;;;;;;;;;31.50;24.75;;;;;21.43;50.96;101161.25;6186500;22;45398;-65
2023/06/07 07:55:53;;;;;;;;;29.50;28.00;;;;;21.58;50.78;101168.34;6178254;23;45345;-68
2023/06/07 07:58:18;;;;;;;;;23.75;20.50;;;;;21.68;50.60;101158.25;6186667;23;45476;-64
2023/06/07 08:00:44;;;;;;;;;33.25;23.00;;;;;21.86;50.08;101162.53;6187661;22;45459;-68
2023/06/07 08:03:10;;;;;;;;;21.75;21.25;;;;;21.86;49.95;101147.13;6182803;23;45399;-61
2023/06/07 08:05:35;;;;;;;;;24.50;18.50;;;;;22.00;49.69;101141.47;6183799;23;47148;-68
2023/06/07 08:08:01;;;;;;;;;22.25;19.25;;;;;22.10;49.36;101158.56;6180435;23;45634;-62
2023/06/07 08:10:26;;;;;;;;;23.50;20.25;;;;;22.19;49.67;101143.91;6179223;23;45381;-62
2023/06/07 08:12:52;;;;;;;;;23.50;19.25;;;;;22.24;49.54;101123.88;6178975;22;45580;-62
2023/06/07 08:15:17;;;;;;;;;19.25;17.00;;;;;22.37;48.66;101124.63;6179136;23;45919;-65
2023/06/07 08:17:43;;;;;;;;;22.00;19.50;;;;;22.57;48.65;101136.97;6180807;22;46836;-68
2023/06/07 08:20:09;;;;;;;;;18.75;17.50;;;;;22.69;48.29;101134.06;6191785;22;44988;-65
2023/06/07 08:22:37;;;;;;;;;24.75;23.25;;;;;22.94;47.58;101148.13;6192281;22;45119;-69
2023/06/07 08:25:04;;;;;;;;;22.00;19.00;;;;;23.16;47.17;101151.41;6188746;23;47038;-66
2023/06/07 08:27:29;;;;;;;;;34.25;24.75;;;;;23.38;46.38;101140.06;6190505;23;44951;-67
2023/06/07 08:29:55;;;;;;;;;24.75;18.50;;;;;23.62;45.49;101145.91;6184444;23;45327;-70
2023/06/07 08:32:21;;;;;;;;;19.67;16.00;;;;;23.70;44.30;101124.81;6179971;22;45483;-70
2023/06/07 08:34:46;;;;;;;;;20.25;17.75;;;;;23.94;43.64;101147.06;6176103;23;47953;-71
2023/06/07 08:37:12;;;;;;;;;18.67;15.67;;;;;24.13;43.65;101144.81;6178497;22;45525;-69
2023/06/07 08:39:37;;;;;;;;;17.00;15.33;;;;;24.33;43.36;101141.59;6178084;23;45554;-68
2023/06/07 08:42:03;;;;;;;;;17.00;15.33;;;;;24.50;43.14;101146.63;6179325;22;45328;-70
2023/06/07 08:44:29;;;;;;;;;26.00;19.67;;;;;24.67;42.35;101149.00;6179504;22;46222;-68
2023/06/07 08:46:56;;;;;;;;;17.33;15.33;;;;;24.73;41.89;101144.28;6178071;22;45314;-71
2023/06/07 08:49:24;;;;;;;;;18.00;15.00;;;;;24.80;42.03;101154.09;6178675;22;45432;-69
2023/06/07 08:51:51;;;;;;;;;18.67;15.67;;;;;24.80;41.78;101136.81;6181723;22;45417;-65
2023/06/07 08:54:23;;;;;;;;;16.33;15.00;;;;;24.70;41.40;101099.72;6178595;22;45290;-68
2023/06/07 08:56:48;;;;;;;;;15.33;12.67;;;;;24.98;41.21;101138.16;6188593;22;44956;-68
2023/06/07 08:59:16;;;;;;;;;15.67;15.67;;;;;25.08;41.39;101153.34;6189083;23;53054;-62
2023/06/07 09:01:43;;;;;;;;;23.00;17.00;;;;;25.07;41.46;101137.88;6190820;23;45099;-65
2023/06/07 09:04:10;;;;;;;;;13.67;13.67;;;;;25.09;41.66;101136.00;6186187;23;48071;-61
2023/06/07 09:06:35;;;;;;;;;18.33;14.00;;;;;25.16;41.46;101134.91;6179574;22;45246;-65
2023/06/07 09:09:04;;;;;;;;;17.67;14.67;;;;;25.22;40.72;101127.47;6177876;22;45553;-66
2023/06/07 09:11:30;;;;;;;;;16.00;13.33;;;;;25.24;40.54;101131.94;6177189;23;45379;-63
2023/06/07 09:13:56;;;;;;;;;13.67;13.67;;;;;25.29;40.41;101135.50;6184155;23;46591;-67
2023/06/07 09:16:22;;;;;;;;;17.00;14.33;;;;;25.35;40.55;101131.66;6173726;23;45350;-62
2023/06/07 09:18:53;;;;;;;;;19.00;16.33;;;;;25.44;40.38;101135.97;6178688;22;45389;-66
2023/06/07 09:21:20;;;;;;;;;16.25;15.25;;;;;25.49;40.69;101136.72;6179065;22;45361;-63
2023/06/07 09:23:45;;;;;;;;;27.00;19.00;;;;;25.49;40.53;101136.72;6178134;23;45875;-67
2023/06/07 09:26:11;;;;;;;;;25.25;21.75;;;;;25.40;40.57;101109.66;6180612;23;45750;-63
2023/06/07 09:28:37;;;;;;;;;16.00;14.33;;;;;25.55;39.97;101134.69;6177354;23;45400;-65
2023/06/07 09:31:04;;;;;;;;;16.33;13.33;;;;;25.58;39.79;101128.25;6178449;23;45465;-65
2023/06/07 09:33:33;;;;;;;;;21.25;20.00;;;;;25.55;39.93;101129.22;6177691;23;46273;-63
2023/06/07 09:36:15;;;;;;;;;17.67;17.00;;;;;25.58;39.41;101139.19;6177454;23;45252;-63
2023/06/07 09:38:41;;;;;;;;;24.00;18.67;;;;;25.57;39.81;101126.44;6175762;23;45449;-64
2023/06/07 09:41:09;;;;;;;;;17.00;14.67;;;;;25.59;39.65;101131.88;6178744;22;45346;-65
2023/06/07 09:43:50;;;;;;;;;16.67;15.67;;;;;25.62;39.65;101129.94;6177151;23;46238;-63
2023/06/07 09:46:17;;;;;;;;;18.67;16.67;;;;;25.72;39.52;101127.81;6176688;23;45326;-68
2023/06/07 09:48:50;;;;;;;;;20.33;16.00;;;;;25.80;39.25;101127.59;6189161;22;44969;-63
2023/06/07 09:51:16;;;;;;;;;21.00;15.33;;;;;25.88;39.11;101120.91;6184428;22;45207;-64
2023/06/07 09:54:01;;;;;;;;;21.33;15.33;;;;;25.96;39.13;101118.00;6187201;23;45235;-61
2023/06/07 09:56:27;;;;;;;;;16.33;15.33;;;;;26.00;39.38;101103.25;6182403;23;45510;-65
2023/06/07 09:59:24;;;;;;;;;17.67;14.67;;;;;25.83;38.89;101062.69;6176255;23;45454;-67
2023/06/07 10:01:52;;;;;;;;;14.33;12.67;;;;;26.11;38.55;101101.06;6125819;23;45588;-67
2023/06/07 10:04:17;;;;;;;;;19.67;17.33;;;;;26.14;38.56;101093.72;6177196;23;46042;-66
2023/06/07 10:06:44;;;;;;;;;18.33;15.00;;;;;26.21;38.97;101098.91;6179988;23;45708;-63
2023/06/07 10:09:11;;;;;;;;;21.67;15.00;;;;;26.20;38.71;101088.00;6186639;22;45374;-67
2023/06/07 10:11:38;;;;;;;;;12.00;11.00;;;;;26.29;38.43;101094.06;6204186;22;45568;-63
2023/06/07 10:14:07;;;;;;;;;17.67;15.33;;;;;26.34;37.98;101095.78;6182513;23;45408;-62
2023/06/07 10:16:37;;;;;;;;;16.33;16.33;;;;;26.36;37.97;101091.13;6187482;23;45213;-62
2023/06/07 10:19:20;;;;;;;;;14.00;14.00;;;;;26.18;38.46;101049.72;6179463;23;45643;-68
2023/06/07 10:21:49;;;;;;;;;13.67;13.00;;;;;26.49;38.01;101095.25;6178611;22;45330;-67
2023/06/07 10:24:22;;;;;;;;;15.33;11.33;;;;;26.52;37.80;101092.41;6189236;22;45190;-64
2023/06/07 10:26:57;;;;;;;;;15.33;15.33;;;;;26.51;38.07;101090.59;6188244;22;45798;-65
2023/06/07 10:29:34;;;;;;;;;25.75;23.75;;;;;26.53;38.16;101080.50;6187086;22;45517;-68
2023/06/07 10:32:25;;;;;;;;;18.75;17.00;;;;;26.59;38.14;101085.75;6188298;23;45043;-66
2023/06/07 10:34:54;;;;;;;;;15.33;13.67;;;;;26.65;37.94;101077.34;6179134;23;46999;-66
2023/06/07 10:37:21;;;;;;;;;20.33;19.33;;;;;26.60;37.72;101060.16;6177730;23;45453;-68
2023/06/07 10:39:49;;;;;;;;;19.00;16.33;;;;;26.71;37.67;101067.13;6175325;23;45399;-68
2023/06/07 10:42:16;;;;;;;;;16.33;15.33;;;;;26.79;37.33;101076.84;6178418;22;45466;-66
2023/06/07 10:44:43;;;;;;;;;18.33;14.33;;;;;26.81;37.35;101074.97;6175609;23;48501;-68
2023/06/07 10:47:20;;;;;;;;;13.33;13.33;;;;;26.85;37.50;101070.25;6177140;22;45401;-67
2023/06/07 10:49:46;;;;;;;;;20.00;16.33;;;;;26.85;36.92;101054.69;6176193;23;45329;-66
2023/06/07 10:52:14;;;;;;;;;17.67;15.67;;;;;26.86;36.95;101055.63;6177214;23;45623;-66
2023/06/07 10:54:41;;;;;;;;;15.67;15.33;;;;;26.89;37.27;101055.47;6178333;22;45303;-63
2023/06/07 10:57:07;;;;;;;;;17.33;15.67;;;;;26.93;37.18;101062.66;6173682;23;45378;-63
2023/06/07 10:59:34;;;;;;;;;17.67;14.00;;;;;26.92;36.54;101054.47;6180411;23;45291;-67
2023/06/07 11:02:26;;;;;;;;;18.00;15.00;;;;;26.97;36.93;101056.09;6178627;22;45233;-61
2023/06/07 11:04:59;;;;;;;;;17.00;15.67;;;;;27.04;36.21;101054.00;6179899;22;46495;-64
2023/06/07 11:07:31;;;;;;;;;19.33;18.67;;;;;27.02;35.97;101054.06;6184660;23;45331;-64
2023/06/07 11:10:02;;;;;;;;;16.33;15.33;;;;;27.10;36.35;101052.91;6183760;22;45274;-66